Fort Smith Regional Airport
KFSM : now visible

Airfield :











YOU CAN JOIN US ON...

 
LOGIN :

Register | Disclaimer

   EN    FR    IT 

 









Legend :    VFR   Marginal VFR   IFR   Intensive IFR   Very Intensive IFR
Visi :
Ceiling :
>= 8 km
>= 3000ft
5 to 8 km
1000 to 3000 ft
1500m to 5 km
500 to 1000 ft
800 to 1500m
200 to 500 ft
< 800m
< 200 ft
Symbols :   Thunderstorms  Fog  Heavy snow  Heavy precipitations  Wind > 20 kt






- Airport Elevation : 469 ft
- IATA code : FSM


KFSM - Fort Smith Regional

CURRENT METAR :
  • 141100Z 05005KT 6SM RA BR BKN006 OVC055 12/12 A3013 RMK AO2 P0003 T01220117

EXPIRED METARs :
  • 141050Z 00000KT 6SM RA BR SCT006 BKN060 OVC080 12/12 A3013 RMK AO2 TSE17 P0031
  • 141020Z AUTO 13006KT 4SM +RA BR FEW043 BKN055 OVC080 12/12 A3011 RMK AO2 TSE17 P0018 T01220117
  • 141006Z AUTO 13006KT 3SM +TSRA BR FEW014 BKN045 OVC065 12/12 A3012 RMK AO2 LTG DSNT E-SW PRESFR P0013 T01220117
  • 141000Z AUTO 15007KT 2 1/2SM +TSRA BR FEW014 BKN025 OVC050 12/12 A3013 RMK AO2 LTG DSNT E AND SW P0009 T01220117
  • 140945Z AUTO 01008KT 2SM R25/5500VP6000FT VCTS +RA BR SCT007 BKN014 OVC026 12/11 A3014 RMK AO2 LTG DSNT ALQDS TSB06E28B30E45 P0047 T01220111
  • 140933Z AUTO 02008KT 2 1/2SM TSRA BR SCT007 BKN028 OVC045 12/12 A3012 RMK AO2 LTG DSNT ALQDS TSB06E28B30 P0020 T01220117
  • 140912Z AUTO 07006KT 4SM +TSRA BR BKN047 OVC070 12/12 A3010 RMK AO2 LTG DSNT ALQDS TSB06 P0008 T01220117
  • 140853Z AUTO 05008KT 8SM VCTS RA SCT008 BKN049 OVC070 12/11 A3009 RMK AO2 LTG DSNT E AND SW AND W TSB03E41 SLP187 P0017 60017 T01220111 55001

TAF KFSM
Valid from the 14 at 12:00 until the 15 at 12:00 UTC


141127Z 1412/1512 05007KT 6SM -SHRA OVC025
TEMPO 1412/1416 5SM -SHRA BKN007
FM141600 05008KT P6SM OVC025
FM142000 04007KT P6SM OVC050
FM150300 02008KT P6SM VCSH OVC050
KZME FIR / North America



MET'MAP, your aeronautical weather chart ! - Copyright ORBIFLY December 2007 - Disclaimer

ORBIFLY MET'MAP TEAM :

Programming & Development : Alexandra Zaïnal
Concept & original design : Baudouin d'Aumeries
Assistance for programming : Marc-Olivier Méhu
Technical & hardware support : Manuel Goepfert

Contact : metmap@orbifly.com




SOURCES & CREDITS :

   NOAA       Earth
Advisory